Time;durP1;ratioP1;P1;durP2;ratioP2;P2;SDS_P1;SDS_P2;PMS_P1;PMS_P2;Temp;Humidity;BMP_temperature;BMP_pressure;BME280_temperature;BME280_humidity;BME280_pressure;Samples;Min_cycle;Max_cycle;Signal;HPM_P1;HPM_P2
2024/03/01 00:02:12;;;;;;;7.05;1.88;;;6.00;99.90;;;;;;5026692;28;20060;-66
2024/03/01 00:04:39;;;;;;;13.38;2.08;;;6.00;99.90;;;;;;5036128;28;20049;-68
2024/03/01 00:07:05;;;;;;;10.43;2.47;;;5.90;99.90;;;;;;5035026;28;20053;-67
2024/03/01 00:09:32;;;;;;;7.45;1.92;;;5.90;99.90;;;;;;5024307;28;20076;-67
2024/03/01 00:11:59;;;;;;;10.75;2.58;;;5.80;99.90;;;;;;5028607;28;20332;-67
2024/03/01 00:14:26;;;;;;;11.00;3.42;;;5.80;99.90;;;;;;5022607;28;20041;-68
2024/03/01 00:16:53;;;;;;;7.55;2.53;;;5.80;99.90;;;;;;5026175;28;20507;-67
2024/03/01 00:19:20;;;;;;;13.02;2.22;;;5.70;99.90;;;;;;5026476;28;20049;-67
2024/03/01 00:21:48;;;;;;;11.00;2.40;;;5.70;99.90;;;;;;5025783;28;20045;-67
2024/03/01 00:24:14;;;;;;;5.55;1.67;;;5.70;99.90;;;;;;5021508;28;20045;-67
2024/03/01 00:26:45;;;;;;;6.38;2.13;;;5.70;99.90;;;;;;5025129;28;20049;-67
2024/03/01 00:29:12;;;;;;;12.43;3.05;;;5.70;99.90;;;;;;5030853;28;20044;-67
2024/03/01 00:31:39;;;;;;;16.65;2.60;;;5.70;99.90;;;;;;5037149;28;20053;-68
2024/03/01 00:34:06;;;;;;;11.85;2.90;;;5.70;99.90;;;;;;5026765;28;20172;-66
2024/03/01 00:36:33;;;;;;;15.63;3.53;;;5.60;99.90;;;;;;5024530;28;20056;-68
2024/03/01 00:39:00;;;;;;;16.70;3.65;;;5.60;99.90;;;;;;5026450;28;20046;-67
2024/03/01 00:41:27;;;;;;;15.55;4.13;;;5.60;99.90;;;;;;5023421;28;21546;-67
2024/03/01 00:43:55;;;;;;;14.93;3.88;;;5.60;99.90;;;;;;5025613;28;20037;-67
2024/03/01 00:46:22;;;;;;;8.82;3.65;;;5.60;99.90;;;;;;5024620;28;20049;-67
2024/03/01 00:48:53;;;;;;;6.53;3.05;;;5.60;99.90;;;;;;5026053;28;20400;-67
2024/03/01 00:51:21;;;;;;;16.48;4.18;;;5.60;99.90;;;;;;5024767;28;20045;-67
2024/03/01 00:53:49;;;;;;;11.73;3.85;;;5.60;99.90;;;;;;5025722;28;20045;-68
2024/03/01 00:56:16;;;;;;;13.65;3.55;;;5.60;99.90;;;;;;5024698;28;20049;-66
2024/03/01 00:58:43;;;;;;;10.45;3.38;;;5.50;99.90;;;;;;5025329;28;20504;-67
2024/03/01 01:01:11;;;;;;;9.40;3.03;;;5.50;99.90;;;;;;5024254;28;20041;-68
2024/03/01 01:03:39;;;;;;;15.43;4.55;;;5.40;99.90;;;;;;5025533;28;20049;-68
2024/03/01 01:06:06;;;;;;;12.00;3.70;;;5.40;99.90;;;;;;5025309;28;20125;-68
2024/03/01 01:08:33;;;;;;;17.70;6.70;;;5.40;99.90;;;;;;5023811;28;20047;-68
2024/03/01 01:10:59;;;;;;;19.27;3.53;;;5.40;99.90;;;;;;5024566;28;20049;-67
2024/03/01 01:13:27;;;;;;;13.05;3.15;;;5.40;99.90;;;;;;5022201;28;20076;-67
2024/03/01 01:15:54;;;;;;;10.63;3.08;;;5.30;99.90;;;;;;5024331;28;20052;-69
2024/03/01 01:18:21;;;;;;;11.20;3.47;;;5.30;99.90;;;;;;5022885;28;20077;-67
2024/03/01 01:20:48;;;;;;;12.40;4.68;;;5.40;99.90;;;;;;5024494;28;20056;-67
2024/03/01 01:23:15;;;;;;;12.02;2.38;;;5.40;99.90;;;;;;5034530;28;20044;-67
2024/03/01 01:25:42;;;;;;;14.95;2.78;;;5.40;99.90;;;;;;5024870;28;20542;-68
2024/03/01 01:28:09;;;;;;;16.23;2.92;;;5.40;99.90;;;;;;5023355;28;20041;-68
2024/03/01 01:30:37;;;;;;;11.85;2.88;;;5.40;99.90;;;;;;5024216;28;20053;-68
2024/03/01 01:33:04;;;;;;;10.85;2.67;;;5.30;99.90;;;;;;5022075;28;20377;-68
2024/03/01 01:35:32;;;;;;;9.77;3.05;;;5.30;99.90;;;;;;5039748;28;20072;-68
2024/03/01 01:37:59;;;;;;;11.60;2.72;;;5.20;99.90;;;;;;5023589;28;20148;-67
2024/03/01 01:40:30;;;;;;;10.10;3.08;;;5.20;99.90;;;;;;5024523;28;20060;-68
2024/03/01 01:43:00;;;;;;;12.73;3.83;;;5.10;99.90;;;;;;5009462;28;20184;-68
2024/03/01 01:45:27;;;;;;;11.48;3.53;;;5.20;99.90;;;;;;5025698;28;20053;-68
2024/03/01 01:47:54;;;;;;;10.13;2.63;;;5.10;99.90;;;;;;5024015;28;20361;-67
2024/03/01 01:50:21;;;;;;;7.22;2.65;;;5.20;99.90;;;;;;5025241;28;20429;-67
2024/03/01 01:52:48;;;;;;;8.90;2.85;;;5.10;99.90;;;;;;5036205;28;20050;-68
2024/03/01 01:55:15;;;;;;;17.02;3.47;;;5.10;99.90;;;;;;5023061;28;20060;-67
2024/03/01 01:57:42;;;;;;;7.93;1.92;;;5.10;99.90;;;;;;5023859;28;20064;-67
2024/03/01 02:00:10;;;;;;;15.30;2.95;;;5.10;99.90;;;;;;5023626;28;20061;-68
2024/03/01 02:02:38;;;;;;;12.00;3.15;;;5.10;99.90;;;;;;5029866;28;20077;-68
2024/03/01 02:05:05;;;;;;;6.28;2.13;;;5.10;99.90;;;;;;5025046;28;20500;-68
2024/03/01 02:07:32;;;;;;;11.85;3.08;;;5.10;99.90;;;;;;5016506;28;20182;-68
2024/03/01 02:09:59;;;;;;;9.50;2.65;;;5.00;99.90;;;;;;5031315;28;20041;-68
2024/03/01 02:12:26;;;;;;;15.18;3.10;;;5.10;99.90;;;;;;5028074;28;20045;-68
2024/03/01 02:14:53;;;;;;;15.30;3.50;;;5.00;99.90;;;;;;5027000;28;20041;-68
2024/03/01 02:17:20;;;;;;;8.90;2.60;;;5.00;99.90;;;;;;5027023;28;20099;-67
2024/03/01 02:19:46;;;;;;;6.72;2.03;;;4.90;99.90;;;;;;5028135;28;20049;-68
2024/03/01 02:22:17;;;;;;;11.85;3.53;;;4.90;99.90;;;;;;5058676;28;20045;-68
2024/03/01 02:24:44;;;;;;;9.85;2.63;;;4.90;99.90;;;;;;5027998;28;20041;-68
2024/03/01 02:27:11;;;;;;;13.52;2.10;;;4.90;99.90;;;;;;5025280;28;20042;-68
2024/03/01 02:29:38;;;;;;;10.27;2.30;;;4.90;99.90;;;;;;5028765;28;20042;-68
2024/03/01 02:32:05;;;;;;;11.60;4.07;;;4.90;99.90;;;;;;5026200;28;20500;-68
2024/03/01 02:34:32;;;;;;;7.95;2.10;;;4.90;99.90;;;;;;5027964;28;20045;-68
2024/03/01 02:36:58;;;;;;;15.32;1.88;;;4.90;99.90;;;;;;5028567;28;20092;-67
2024/03/01 02:39:26;;;;;;;17.98;2.28;;;4.80;99.90;;;;;;5026902;28;20049;-68
2024/03/01 02:41:53;;;;;;;9.10;2.55;;;4.80;99.90;;;;;;5026188;28;20049;-68
2024/03/01 02:44:20;;;;;;;5.40;1.50;;;4.80;99.90;;;;;;5028243;28;20072;-67
2024/03/01 02:46:47;;;;;;;11.05;1.55;;;4.70;99.90;;;;;;5026673;28;20111;-67
2024/03/01 02:49:13;;;;;;;6.10;1.55;;;4.70;99.90;;;;;;5027537;28;20126;-67
2024/03/01 02:51:40;;;;;;;10.55;2.72;;;4.60;99.90;;;;;;5026931;28;20053;-67
2024/03/01 02:54:07;;;;;;;7.05;2.08;;;4.60;99.90;;;;;;5028727;28;20052;-67
2024/03/01 02:56:34;;;;;;;6.07;2.03;;;4.60;99.90;;;;;;5034811;28;20555;-67
2024/03/01 02:59:01;;;;;;;5.82;1.88;;;4.60;99.90;;;;;;5028328;28;20095;-67
2024/03/01 03:01:29;;;;;;;12.60;1.88;;;4.50;99.90;;;;;;5027319;28;20049;-67
2024/03/01 03:03:56;;;;;;;9.48;1.80;;;4.50;99.90;;;;;;5027680;28;20076;-66
2024/03/01 03:06:23;;;;;;;8.13;2.42;;;4.50;99.90;;;;;;5028138;28;20065;-67
2024/03/01 03:08:50;;;;;;;11.80;2.45;;;4.40;99.90;;;;;;5032494;28;20057;-66
2024/03/01 03:11:20;;;;;;;5.22;1.92;;;4.50;99.90;;;;;;5027960;28;20050;-67
2024/03/01 03:13:48;;;;;;;7.90;2.03;;;4.40;99.90;;;;;;5024611;28;20058;-68
2024/03/01 03:16:15;;;;;;;12.15;1.95;;;4.40;99.90;;;;;;5027488;28;20451;-67
2024/03/01 03:18:42;;;;;;;5.85;1.45;;;4.30;99.90;;;;;;5026484;28;20053;-67
2024/03/01 03:21:09;;;;;;;7.78;2.22;;;4.30;99.90;;;;;;5026052;28;20181;-66
2024/03/01 03:23:36;;;;;;;5.38;1.75;;;4.30;99.90;;;;;;5027303;28;20053;-66
2024/03/01 03:26:03;;;;;;;11.43;2.00;;;4.30;99.90;;;;;;5026560;28;20050;-67
2024/03/01 03:28:30;;;;;;;5.57;1.73;;;4.30;99.90;;;;;;5030544;28;20083;-67
2024/03/01 03:30:57;;;;;;;6.95;1.92;;;4.30;99.90;;;;;;5026273;28;20091;-68
2024/03/01 03:33:24;;;;;;;11.45;1.90;;;4.20;99.90;;;;;;5029027;28;20069;-67
2024/03/01 03:35:51;;;;;;;9.32;1.92;;;4.20;99.90;;;;;;5028226;28;20103;-67
2024/03/01 03:38:18;;;;;;;9.77;2.40;;;4.30;99.90;;;;;;5026718;28;20107;-66
2024/03/01 03:40:45;;;;;;;8.25;1.85;;;4.30;99.90;;;;;;5027525;28;20092;-67
2024/03/01 03:43:12;;;;;;;11.95;2.10;;;4.40;99.90;;;;;;5022500;28;20053;-66
2024/03/01 03:45:40;;;;;;;8.55;2.50;;;4.40;99.90;;;;;;5024676;28;20045;-67
2024/03/01 03:48:07;;;;;;;4.95;1.63;;;4.50;99.90;;;;;;5028157;28;20336;-68
2024/03/01 03:50:34;;;;;;;5.28;1.35;;;4.50;99.90;;;;;;5028734;28;20710;-68
2024/03/01 03:53:00;;;;;;;12.18;1.80;;;4.40;99.90;;;;;;5027364;28;20131;-68
2024/03/01 03:55:27;;;;;;;4.78;2.53;;;4.50;99.90;;;;;;5027510;28;20076;-67
2024/03/01 03:57:54;;;;;;;6.13;1.50;;;4.40;99.90;;;;;;5026986;28;20042;-67
2024/03/01 04:00:21;;;;;;;5.57;1.63;;;4.40;99.90;;;;;;5028955;28;20052;-67
2024/03/01 04:02:48;;;;;;;12.35;1.40;;;4.40;99.90;;;;;;5037366;28;20280;-67
2024/03/01 04:05:15;;;;;;;4.28;1.73;;;4.40;99.90;;;;;;5026539;28;20480;-67
2024/03/01 04:07:43;;;;;;;7.97;2.15;;;4.30;99.90;;;;;;5026061;28;20053;-68
2024/03/01 04:10:10;;;;;;;10.05;1.65;;;4.30;99.90;;;;;;5026737;28;20428;-67
2024/03/01 04:12:37;;;;;;;8.60;1.30;;;4.30;99.90;;;;;;5027861;28;20348;-70
2024/03/01 04:15:05;;;;;;;9.10;1.75;;;4.40;99.90;;;;;;5025782;28;20120;-67
2024/03/01 04:17:32;;;;;;;8.75;1.50;;;4.30;99.90;;;;;;5026155;28;20100;-67
2024/03/01 04:19:59;;;;;;;5.30;1.42;;;4.30;99.90;;;;;;5024923;28;20444;-67
2024/03/01 04:22:26;;;;;;;2.88;1.38;;;4.30;99.90;;;;;;5026463;28;20053;-68
2024/03/01 04:24:54;;;;;;;7.97;1.52;;;4.30;99.90;;;;;;5024256;28;20136;-67
2024/03/01 04:27:21;;;;;;;9.38;1.40;;;4.20;99.90;;;;;;5026947;28;20045;-67
2024/03/01 04:29:48;;;;;;;12.05;1.83;;;4.30;99.90;;;;;;5026340;28;20052;-68
2024/03/01 04:32:18;;;;;;;5.00;1.02;;;4.30;99.90;;;;;;5026776;28;20053;-67
2024/03/01 04:34:45;;;;;;;9.60;1.42;;;4.30;99.90;;;;;;5025643;28;20099;-67
2024/03/01 04:37:15;;;;;;;6.97;1.40;;;4.30;99.90;;;;;;5026878;28;20473;-69
2024/03/01 04:39:41;;;;;;;6.90;1.27;;;4.30;99.90;;;;;;5026181;28;20045;-68
2024/03/01 04:42:08;;;;;;;6.32;1.42;;;4.30;99.90;;;;;;5028457;28;20513;-68
2024/03/01 04:44:40;;;;;;;6.25;1.45;;;4.30;99.90;;;;;;5023732;28;20045;-68
2024/03/01 04:47:07;;;;;;;10.40;1.45;;;4.30;99.90;;;;;;5022813;28;20045;-68
2024/03/01 04:49:34;;;;;;;11.38;1.38;;;4.30;99.90;;;;;;5025606;28;20347;-67
2024/03/01 04:52:01;;;;;;;7.20;1.40;;;4.30;99.90;;;;;;5025986;28;20045;-67
2024/03/01 04:54:28;;;;;;;5.07;1.00;;;4.30;99.90;;;;;;5026038;28;20083;-67
2024/03/01 04:56:55;;;;;;;16.50;1.58;;;4.30;99.90;;;;;;5027001;28;20071;-67
2024/03/01 04:59:22;;;;;;;7.28;1.85;;;4.30;99.90;;;;;;5019708;28;20093;-67
2024/03/01 05:01:49;;;;;;;6.25;1.10;;;4.30;99.90;;;;;;5020129;28;20041;-66
2024/03/01 05:04:15;;;;;;;11.25;1.35;;;4.30;99.90;;;;;;5024410;28;20114;-67
2024/03/01 05:06:42;;;;;;;5.82;0.75;;;4.30;99.90;;;;;;5024754;28;20128;-66
2024/03/01 05:09:09;;;;;;;10.82;1.23;;;4.30;99.90;;;;;;5026161;28;20041;-67
2024/03/01 05:11:36;;;;;;;10.75;2.83;;;4.30;99.90;;;;;;5026109;28;20053;-67
2024/03/01 05:14:03;;;;;;;11.05;1.77;;;4.40;99.90;;;;;;5025979;28;20099;-67
2024/03/01 05:16:31;;;;;;;6.70;1.20;;;4.40;99.90;;;;;;5025279;28;20537;-67
2024/03/01 05:18:58;;;;;;;8.88;1.88;;;4.40;99.90;;;;;;5024568;28;20497;-67
2024/03/01 05:21:25;;;;;;;7.82;2.67;;;4.40;99.90;;;;;;5024068;28;20136;-67
2024/03/01 05:23:52;;;;;;;11.20;2.10;;;4.40;99.90;;;;;;5025888;28;20481;-67
2024/03/01 05:26:18;;;;;;;5.00;1.23;;;4.40;99.90;;;;;;5025758;28;20503;-67
2024/03/01 05:28:45;;;;;;;9.88;1.83;;;4.50;99.90;;;;;;5025144;28;20045;-68
2024/03/01 05:31:12;;;;;;;12.23;1.20;;;4.50;99.90;;;;;;5025168;28;20432;-67
2024/03/01 05:33:50;;;;;;;15.75;1.48;;;4.50;99.90;;;;;;5023690;28;20057;-67
2024/03/01 05:36:17;;;;;;;8.32;1.38;;;4.50;99.90;;;;;;5026397;28;20446;-67
2024/03/01 05:38:44;;;;;;;6.97;1.05;;;4.50;99.90;;;;;;5028620;28;20053;-68
2024/03/01 05:41:11;;;;;;;13.10;1.42;;;4.50;99.90;;;;;;5029343;28;20064;-67
2024/03/01 05:43:38;;;;;;;6.50;1.77;;;4.60;99.90;;;;;;5029873;28;20050;-67
2024/03/01 05:46:13;;;;;;;11.02;1.73;;;4.60;99.90;;;;;;5027978;28;20103;-67
2024/03/01 05:48:40;;;;;;;5.47;1.45;;;4.60;99.90;;;;;;5029138;28;20061;-67
2024/03/01 05:51:09;;;;;;;9.60;1.55;;;4.70;99.90;;;;;;5030059;28;20049;-69
2024/03/01 05:53:41;;;;;;;9.20;1.52;;;4.70;99.90;;;;;;5028975;28;20053;-67
2024/03/01 05:56:17;;;;;;;11.32;1.83;;;4.60;99.90;;;;;;5028041;28;20042;-66
2024/03/01 05:58:45;;;;;;;13.95;2.83;;;4.60;99.90;;;;;;5033483;28;20057;-67
2024/03/01 06:01:12;;;;;;;13.55;1.60;;;4.70;99.90;;;;;;5029512;28;20468;-67
2024/03/01 06:03:39;;;;;;;14.25;1.88;;;4.70;99.90;;;;;;5028437;28;20049;-67
2024/03/01 06:06:08;;;;;;;14.68;1.65;;;4.80;99.90;;;;;;5025743;28;20048;-67
2024/03/01 06:08:35;;;;;;;6.63;1.48;;;4.80;99.90;;;;;;5026692;28;20053;-67
2024/03/01 06:11:04;;;;;;;10.88;2.05;;;4.80;99.90;;;;;;5028220;28;20068;-67
2024/03/01 06:13:30;;;;;;;19.67;3.95;;;4.80;99.90;;;;;;5031868;28;20084;-67
2024/03/01 06:15:57;;;;;;;14.20;4.03;;;4.80;99.90;;;;;;5028494;28;20054;-66
2024/03/01 06:18:24;;;;;;;11.20;2.55;;;4.80;99.90;;;;;;5027768;28;20076;-67
2024/03/01 06:20:51;;;;;;;12.35;1.77;;;4.80;99.90;;;;;;5029375;28;20041;-67
2024/03/01 06:23:18;;;;;;;19.60;3.67;;;4.80;99.90;;;;;;5028042;28;20451;-68
2024/03/01 06:25:45;;;;;;;8.65;2.22;;;4.90;99.90;;;;;;5024382;28;20053;-67
2024/03/01 06:28:12;;;;;;;13.32;2.20;;;4.90;99.90;;;;;;5025858;28;20178;-67
2024/03/01 06:30:39;;;;;;;14.63;1.88;;;5.00;99.90;;;;;;5029264;28;20084;-68
2024/03/01 06:33:07;;;;;;;15.07;2.53;;;5.00;99.90;;;;;;5028468;28;20452;-67
2024/03/01 06:35:34;;;;;;;7.75;2.03;;;5.10;99.90;;;;;;5028125;28;20046;-67
2024/03/01 06:38:01;;;;;;;15.07;3.13;;;5.20;99.90;;;;;;5027804;28;20049;-67
2024/03/01 06:40:28;;;;;;;19.23;4.03;;;5.20;99.90;;;;;;5028941;28;20033;-67
2024/03/01 06:42:55;;;;;;;11.63;3.17;;;5.30;99.90;;;;;;5027212;28;20049;-67
2024/03/01 06:45:22;;;;;;;15.85;2.15;;;5.40;99.90;;;;;;5028228;28;20084;-67
2024/03/01 06:47:49;;;;;;;10.00;1.92;;;5.50;99.90;;;;;;5025897;28;20053;-68
2024/03/01 06:50:16;;;;;;;10.48;3.20;;;5.50;99.90;;;;;;5034392;28;20088;-68
2024/03/01 06:52:43;;;;;;;19.58;2.10;;;5.60;99.90;;;;;;5036365;28;20051;-67
2024/03/01 06:55:09;;;;;;;26.88;3.05;;;5.60;99.90;;;;;;5026007;28;20330;-68
2024/03/01 06:57:37;;;;;;;15.15;3.17;;;5.70;99.90;;;;;;5026448;28;20240;-69
2024/03/01 07:00:10;;;;;;;16.20;2.25;;;5.70;99.90;;;;;;5026556;28;20049;-68
2024/03/01 07:02:36;;;;;;;16.10;2.13;;;5.70;99.90;;;;;;5028067;28;20052;-68
2024/03/01 07:05:04;;;;;;;10.48;2.47;;;5.70;99.90;;;;;;5027535;28;20045;-67
2024/03/01 07:07:31;;;;;;;15.32;2.65;;;5.70;99.90;;;;;;5032075;28;20045;-67
2024/03/01 07:09:58;;;;;;;13.73;2.25;;;5.60;99.90;;;;;;5030200;28;20037;-69
2024/03/01 07:12:25;;;;;;;9.70;2.35;;;5.60;99.90;;;;;;5029678;28;20550;-70
2024/03/01 07:14:52;;;;;;;21.25;4.88;;;5.60;99.90;;;;;;5035051;28;20101;-69
2024/03/01 07:17:19;;;;;;;16.80;3.13;;;5.60;99.90;;;;;;5020061;28;20073;-68
2024/03/01 07:19:46;;;;;;;13.38;2.80;;;5.50;99.90;;;;;;5032800;28;20127;-71
2024/03/01 07:22:13;;;;;;;15.05;3.22;;;5.50;99.90;;;;;;5027158;28;20052;-69
2024/03/01 07:24:39;;;;;;;13.20;2.15;;;5.40;99.90;;;;;;5027744;28;20054;-70
2024/03/01 07:27:06;;;;;;;10.85;1.85;;;5.40;99.90;;;;;;5028305;28;20562;-70
2024/03/01 07:29:33;;;;;;;9.55;1.40;;;5.30;99.90;;;;;;5036633;28;20403;-71
2024/03/01 07:32:00;;;;;;;10.25;1.75;;;5.20;99.90;;;;;;5032098;28;20049;-71
2024/03/01 07:34:29;;;;;;;7.95;2.00;;;5.20;99.90;;;;;;5031655;28;20037;-71
2024/03/01 07:36:56;;;;;;;11.32;1.52;;;5.10;99.90;;;;;;5025907;28;20054;-72
2024/03/01 07:39:23;;;;;;;11.63;1.75;;;5.10;99.90;;;;;;5028875;28;20050;-71
2024/03/01 07:41:50;;;;;;;8.10;1.20;;;5.00;99.90;;;;;;5027263;28;20045;-70
2024/03/01 07:44:16;;;;;;;5.00;1.08;;;5.00;99.90;;;;;;5025117;28;20036;-68
2024/03/01 07:46:43;;;;;;;3.92;0.95;;;5.00;99.90;;;;;;5029909;28;20052;-69
2024/03/01 07:49:10;;;;;;;3.40;1.38;;;5.00;99.90;;;;;;5030152;28;20494;-69
2024/03/01 07:51:37;;;;;;;4.30;0.80;;;5.00;99.90;;;;;;5024759;28;20516;-70
2024/03/01 07:54:04;;;;;;;1.48;0.60;;;5.00;99.90;;;;;;5029120;28;20056;-70
2024/03/01 07:56:32;;;;;;;1.63;0.70;;;5.00;99.90;;;;;;5029140;28;20479;-70
2024/03/01 07:59:03;;;;;;;3.47;0.82;;;4.90;99.90;;;;;;5030058;28;20080;-70
2024/03/01 08:01:30;;;;;;;4.93;0.70;;;4.90;99.90;;;;;;5029051;28;20045;-68
2024/03/01 08:03:57;;;;;;;9.02;1.13;;;4.90;99.90;;;;;;5004947;28;20054;-70
2024/03/01 08:06:30;;;;;;;5.10;0.65;;;4.80;99.90;;;;;;5029962;28;20048;-68
2024/03/01 08:08:57;;;;;;;0.77;0.40;;;4.80;99.90;;;;;;5029645;28;20114;-68
2024/03/01 08:11:40;;;;;;;3.97;1.38;;;4.80;99.90;;;;;;5020337;28;20103;-68
2024/03/01 08:14:16;;;;;;;0.68;0.38;;;4.80;99.90;;;;;;5025073;28;20068;-69
2024/03/01 08:16:43;;;;;;;4.63;2.00;;;4.80;99.90;;;;;;5029808;28;20524;-65
2024/03/01 08:19:11;;;;;;;3.08;0.55;;;4.90;99.90;;;;;;5033822;28;20087;-69
2024/03/01 08:21:38;;;;;;;2.97;0.73;;;4.90;99.90;;;;;;5033783;28;20053;-69
2024/03/01 08:24:05;;;;;;;5.97;1.05;;;4.90;99.90;;;;;;5025471;28;20098;-69
2024/03/01 08:26:32;;;;;;;7.05;0.98;;;5.00;99.90;;;;;;5024365;28;20053;-69
2024/03/01 08:29:00;;;;;;;4.00;0.90;;;4.90;99.90;;;;;;5025397;28;20049;-69
2024/03/01 08:31:35;;;;;;;1.67;0.70;;;5.00;99.90;;;;;;5025148;28;20107;-71
2024/03/01 08:34:08;;;;;;;3.47;1.02;;;5.00;99.90;;;;;;5038612;28;20068;-70
2024/03/01 08:36:35;;;;;;;6.07;0.90;;;5.00;99.90;;;;;;5025031;28;20103;-70
2024/03/01 08:39:16;;;;;;;8.85;0.90;;;5.10;99.90;;;;;;5025640;28;20107;-70
2024/03/01 08:41:49;;;;;;;2.20;0.68;;;5.20;99.90;;;;;;5028516;28;20057;-69
2024/03/01 08:44:42;;;;;;;6.10;0.75;;;5.20;99.90;;;;;;5024177;28;20520;-70
2024/03/01 08:47:18;;;;;;;7.53;1.55;;;5.10;99.90;;;;;;5025081;28;20057;-69
2024/03/01 08:49:51;;;;;;;12.15;2.38;;;5.40;99.90;;;;;;5019182;28;20492;-69
2024/03/01 08:52:37;;;;;;;12.15;2.17;;;5.50;99.90;;;;;;5029046;28;20055;-69
2024/03/01 08:55:10;;;;;;;8.70;1.65;;;5.60;99.90;;;;;;5055550;28;20045;-69
2024/03/01 08:57:37;;;;;;;6.68;1.58;;;5.70;99.90;;;;;;5007370;28;20076;-68
2024/03/01 09:00:46;;;;;;;12.05;1.73;;;5.80;99.90;;;;;;5022076;28;20056;-69
2024/03/01 09:03:20;;;;;;;18.48;3.22;;;5.90;99.90;;;;;;5028017;28;20057;-70
2024/03/01 09:05:47;;;;;;;25.77;5.50;;;5.90;99.90;;;;;;5053258;28;20050;-69
2024/03/01 09:08:32;;;;;;;15.40;2.70;;;5.90;99.90;;;;;;5014300;28;20103;-69
2024/03/01 09:10:59;;;;;;;10.85;1.77;;;6.00;99.90;;;;;;5020946;28;20416;-69
2024/03/01 09:13:26;;;;;;;27.30;5.20;;;6.00;99.90;;;;;;5013548;28;20556;-69
2024/03/01 09:15:54;;;;;;;22.40;2.63;;;6.00;99.90;;;;;;5016137;28;20053;-69
2024/03/01 09:18:42;;;;;;;12.95;3.28;;;6.00;99.90;;;;;;5018818;28;20049;-71
2024/03/01 09:21:30;;;;;;;11.18;2.10;;;6.10;99.90;;;;;;5022984;28;20353;-70
2024/03/01 09:23:59;;;;;;;8.23;2.08;;;6.10;99.90;;;;;;5014870;28;20104;-71
2024/03/01 09:26:26;;;;;;;7.68;1.55;;;6.00;99.90;;;;;;5024644;28;20042;-70
2024/03/01 09:28:56;;;;;;;9.25;0.98;;;5.80;99.90;;;;;;5024429;28;20053;-70
2024/03/01 09:31:23;;;;;;;4.28;0.80;;;5.60;99.90;;;;;;5023845;28;20046;-71
2024/03/01 09:33:50;;;;;;;5.53;0.80;;;5.40;99.90;;;;;;5024741;28;20660;-69
2024/03/01 09:36:18;;;;;;;3.97;0.98;;;5.30;99.90;;;;;;5023743;28;20046;-70
2024/03/01 09:38:54;;;;;;;3.90;0.90;;;5.30;99.90;;;;;;5024428;28;20049;-70
2024/03/01 09:41:27;;;;;;;3.95;1.05;;;5.30;99.90;;;;;;5024404;28;20159;-68
2024/03/01 09:44:04;;;;;;;4.80;0.80;;;5.20;99.90;;;;;;5019658;28;20053;-70
2024/03/01 09:46:53;;;;;;;8.65;0.80;;;5.30;99.90;;;;;;5036923;28;20534;-70
2024/03/01 09:49:31;;;;;;;4.60;0.88;;;5.30;99.90;;;;;;5010932;28;20049;-70
2024/03/01 09:52:10;;;;;;;10.63;1.38;;;5.30;99.90;;;;;;5022427;28;20042;-68
2024/03/01 09:54:53;;;;;;;10.77;1.40;;;5.30;99.90;;;;;;5028071;28;20520;-69
2024/03/01 09:57:31;;;;;;;8.35;0.90;;;5.40;99.90;;;;;;5023818;28;20049;-68
2024/03/01 10:00:07;;;;;;;7.97;0.88;;;5.40;99.90;;;;;;5024201;28;20095;-68
2024/03/01 10:03:11;;;;;;;11.50;1.70;;;5.40;99.90;;;;;;5006058;28;20053;-70
2024/03/01 10:05:44;;;;;;;14.63;1.80;;;5.50;99.90;;;;;;5001214;28;20088;-68
2024/03/01 10:08:36;;;;;;;8.45;1.58;;;5.50;99.90;;;;;;5022441;28;20128;-69
2024/03/01 10:11:24;;;;;;;11.88;1.83;;;5.60;99.90;;;;;;5025800;28;20061;-68
2024/03/01 10:14:12;;;;;;;7.57;1.42;;;5.70;99.90;;;;;;5025073;28;20053;-68
2024/03/01 10:17:04;;;;;;;5.70;1.33;;;5.80;99.90;;;;;;5014903;28;20071;-68
2024/03/01 10:19:35;;;;;;;15.05;2.42;;;5.90;99.90;;;;;;5025458;28;20095;-68
2024/03/01 10:22:05;;;;;;;9.90;1.60;;;5.90;99.90;;;;;;5024690;28;20489;-71
2024/03/01 10:24:57;;;;;;;6.40;1.48;;;5.90;99.90;;;;;;5028017;28;20049;-69
2024/03/01 10:27:36;;;;;;;9.68;0.93;;;5.80;99.90;;;;;;5028942;28;20132;-69
2024/03/01 10:30:30;;;;;;;6.18;0.90;;;5.60;99.90;;;;;;5027241;28;20448;-69
2024/03/01 10:33:34;;;;;;;8.52;1.15;;;5.40;99.90;;;;;;5027793;28;20045;-68
2024/03/01 10:36:07;;;;;;;8.27;1.20;;;5.50;99.90;;;;;;5027455;28;20046;-68
2024/03/01 10:38:55;;;;;;;6.30;1.27;;;5.60;99.90;;;;;;5031629;28;20091;-69
2024/03/01 10:41:41;;;;;;;13.13;3.22;;;5.70;99.90;;;;;;5031196;28;20128;-69
2024/03/01 10:44:29;;;;;;;3.47;1.42;;;5.80;99.90;;;;;;5028495;28;20045;-69
2024/03/01 10:47:13;;;;;;;7.80;1.70;;;5.90;99.90;;;;;;5017239;28;20053;-69
2024/03/01 10:50:21;;;;;;;13.25;3.13;;;5.90;99.90;;;;;;5027846;28;20045;-69
2024/03/01 10:53:18;;;;;;;11.43;1.58;;;6.00;99.90;;;;;;5026374;28;20045;-69
2024/03/01 10:56:04;;;;;;;11.98;2.72;;;6.10;99.90;;;;;;5022929;28;20359;-68
2024/03/01 10:58:46;;;;;;;8.95;1.10;;;6.10;99.90;;;;;;5028534;28;20052;-68
2024/03/01 11:01:30;;;;;;;6.65;1.52;;;6.20;99.90;;;;;;5029830;28;20176;-68
2024/03/01 11:04:16;;;;;;;7.65;1.30;;;6.20;99.90;;;;;;5018146;28;20085;-69
2024/03/01 11:06:50;;;;;;;5.60;1.00;;;6.10;99.90;;;;;;5050281;28;20049;-68
2024/03/01 11:09:36;;;;;;;4.55;1.20;;;6.00;99.90;;;;;;5026827;28;20053;-68
2024/03/01 11:12:25;;;;;;;7.85;1.70;;;6.00;99.90;;;;;;5017183;28;20060;-70
2024/03/01 11:15:00;;;;;;;5.13;1.15;;;6.10;99.90;;;;;;5012003;28;20044;-69
2024/03/01 11:17:27;;;;;;;5.18;0.80;;;6.20;99.90;;;;;;5029219;28;20061;-70
2024/03/01 11:19:58;;;;;;;8.10;1.38;;;6.20;99.90;;;;;;5015416;28;20037;-70
2024/03/01 11:22:25;;;;;;;4.20;1.00;;;6.20;99.90;;;;;;5027365;28;20111;-69
2024/03/01 11:25:08;;;;;;;6.00;0.95;;;6.20;99.90;;;;;;5027175;28;20099;-69
2024/03/01 11:27:41;;;;;;;5.15;0.90;;;6.10;99.90;;;;;;5027274;28;20057;-69
2024/03/01 11:30:09;;;;;;;0.77;0.30;;;6.00;99.90;;;;;;5027196;28;20112;-69
2024/03/01 11:32:36;;;;;;;4.13;0.50;;;5.90;99.90;;;;;;5025061;28;20107;-69
2024/03/01 11:35:15;;;;;;;3.25;0.65;;;6.00;99.90;;;;;;5027598;28;20675;-67
2024/03/01 11:37:59;;;;;;;3.08;0.60;;;6.10;99.90;;;;;;5017334;28;20053;-69
2024/03/01 11:41:03;;;;;;;2.65;0.75;;;6.20;99.90;;;;;;5024522;28;20056;-69
2024/03/01 11:43:45;;;;;;;1.60;0.60;;;6.20;99.90;;;;;;5026470;28;20075;-69
2024/03/01 11:46:43;;;;;;;2.17;0.50;;;6.20;99.90;;;;;;5023224;28;20056;-69
2024/03/01 11:49:38;;;;;;;2.65;0.82;;;6.10;99.90;;;;;;5026810;28;20053;-69
2024/03/01 11:52:22;;;;;;;;;;;6.20;99.90;;;;;;5020399;28;20115;-69
2024/03/01 11:55:09;;;;;;;0.95;0.32;;;6.20;99.90;;;;;;5060199;28;19951;-69
2024/03/01 11:58:18;;;;;;;2.65;0.45;;;6.20;99.90;;;;;;5020302;28;20095;-68
2024/03/01 12:01:04;;;;;;;0.20;0.20;;;6.30;99.90;;;;;;5025608;28;20061;-68
2024/03/01 12:03:49;;;;;;;0.60;0.30;;;6.30;99.90;;;;;;5025541;28;20053;-68
2024/03/01 12:06:40;;;;;;;0.55;0.32;;;6.30;99.90;;;;;;5023880;28;20131;-67
2024/03/01 12:09:36;;;;;;;1.10;0.30;;;6.40;99.90;;;;;;5023419;28;20049;-68
2024/03/01 12:12:17;;;;;;;0.28;0.25;;;6.50;99.90;;;;;;5027460;28;20488;-68
2024/03/01 12:14:53;;;;;;;1.70;0.63;;;6.60;99.90;;;;;;5022060;28;20049;-68
2024/03/01 12:17:23;;;;;;;0.60;0.38;;;6.60;99.90;;;;;;5023790;28;20045;-69
2024/03/01 12:19:57;;;;;;;2.15;0.50;;;6.60;99.90;;;;;;5024399;28;20050;-68
2024/03/01 12:22:42;;;;;;;0.80;0.40;;;6.70;99.90;;;;;;5024922;28;20500;-69
2024/03/01 12:25:12;;;;;;;1.42;0.50;;;6.80;99.90;;;;;;5026569;28;20510;-68
2024/03/01 12:27:50;;;;;;;1.30;0.43;;;6.90;99.90;;;;;;5023274;28;20049;-67
2024/03/01 12:30:27;;;;;;;3.30;0.75;;;7.00;99.90;;;;;;5024834;28;20448;-67
2024/03/01 12:33:31;;;;;;;2.95;0.40;;;7.20;99.90;;;;;;5026074;28;20119;-67
2024/03/01 12:36:12;;;;;;;2.75;0.70;;;7.30;99.90;;;;;;5025844;28;20103;-68
2024/03/01 12:38:43;;;;;;;2.38;0.65;;;7.40;99.90;;;;;;5025801;28;20053;-68
2024/03/01 12:41:29;;;;;;;2.10;0.50;;;7.40;99.90;;;;;;5024170;28;20353;-68
2024/03/01 12:44:30;;;;;;;6.13;0.70;;;7.40;99.90;;;;;;5026591;28;20049;-68
2024/03/01 12:47:35;;;;;;;2.90;0.52;;;7.40;99.90;;;;;;5025417;28;20135;-69
2024/03/01 12:50:29;;;;;;;3.88;0.82;;;7.50;99.90;;;;;;5025894;28;20456;-68
2024/03/01 12:53:34;;;;;;;2.97;0.90;;;7.70;99.90;;;;;;5014663;28;20254;-69
2024/03/01 12:56:20;;;;;;;3.72;0.75;;;7.80;99.90;;;;;;5014058;28;20088;-69
2024/03/01 12:59:19;;;;;;;12.32;2.25;;;7.80;99.90;;;;;;5024591;28;20119;-70
2024/03/01 13:01:57;;;;;;;3.40;0.65;;;7.80;99.90;;;;;;5018009;28;20053;-69
2024/03/01 13:04:41;;;;;;;15.57;4.40;;;7.90;99.90;;;;;;5026111;28;20049;-68
2024/03/01 13:07:08;;;;;;;7.93;0.82;;;8.00;99.90;;;;;;5015133;28;20452;-69
2024/03/01 13:09:48;;;;;;;3.85;0.82;;;8.20;99.90;;;;;;5010191;28;20368;-69
2024/03/01 13:12:18;;;;;;;9.32;1.30;;;8.20;99.90;;;;;;5024307;28;20050;-69
2024/03/01 13:14:48;;;;;;;8.88;1.50;;;8.20;99.90;;;;;;5023941;28;20050;-69
2024/03/01 13:17:26;;;;;;;6.53;0.95;;;8.20;99.90;;;;;;5026025;28;20107;-70
2024/03/01 13:20:23;;;;;;;4.57;0.95;;;8.30;99.90;;;;;;5024774;28;20072;-68